createdAt,value
2023-03-22T00:00:07.366Z,9.34
2023-03-22T00:01:07.296Z,9.43
2023-03-22T00:02:07.258Z,9.43
2023-03-22T00:03:07.213Z,9.48
2023-03-22T00:04:07.200Z,9.48
2023-03-22T00:05:07.266Z,9.56
2023-03-22T00:06:07.259Z,9.61
2023-03-22T00:07:07.265Z,9.60
2023-03-22T00:08:07.163Z,9.58
2023-03-22T00:09:07.317Z,9.58
2023-03-22T00:10:07.262Z,9.63
2023-03-22T00:11:07.024Z,9.61
2023-03-22T00:12:07.236Z,9.66
2023-03-22T00:13:07.242Z,9.64
2023-03-22T00:14:07.258Z,9.66
2023-03-22T00:15:07.171Z,9.68
2023-03-22T00:16:07.327Z,9.66
2023-03-22T00:17:07.200Z,9.68
2023-03-22T00:18:07.197Z,9.70
2023-03-22T00:19:07.119Z,9.73
2023-03-22T00:20:07.212Z,9.73
2023-03-22T00:21:06.932Z,9.73
2023-03-22T00:22:07.121Z,9.76
2023-03-22T00:23:07.097Z,9.75
2023-03-22T00:24:07.087Z,9.76
2023-03-22T00:25:06.908Z,9.78
2023-03-22T00:26:06.841Z,9.79
2023-03-22T00:27:06.992Z,9.83
2023-03-22T00:28:07.065Z,9.85
2023-03-22T00:29:07.049Z,9.82
2023-03-22T00:30:07.124Z,9.83
2023-03-22T00:31:07.186Z,9.82
2023-03-22T00:32:07.046Z,9.83
2023-03-22T00:33:06.988Z,9.86
2023-03-22T00:34:06.996Z,9.83
2023-03-22T00:35:06.989Z,9.85
2023-03-22T00:36:07.057Z,9.82
2023-03-22T00:37:06.964Z,9.85
2023-03-22T00:38:06.949Z,9.83
2023-03-22T00:39:06.936Z,9.85
2023-03-22T00:40:06.929Z,9.91
2023-03-22T00:41:07.004Z,9.86
2023-03-22T00:42:06.922Z,9.89
2023-03-22T00:43:06.894Z,9.85
2023-03-22T00:44:06.885Z,9.86
2023-03-22T00:45:06.787Z,9.86
2023-03-22T00:46:07.006Z,9.85
2023-03-22T00:47:06.662Z,9.88
2023-03-22T00:48:06.936Z,9.83
2023-03-22T00:49:06.912Z,9.85
2023-03-22T00:50:06.827Z,9.83
2023-03-22T00:51:06.846Z,9.89
2023-03-22T00:52:06.796Z,9.86
2023-03-22T00:53:06.694Z,9.93
2023-03-22T00:54:06.837Z,9.89
2023-03-22T00:55:06.677Z,9.91
2023-03-22T00:56:06.690Z,9.94
2023-03-22T00:57:06.823Z,9.89
2023-03-22T00:58:06.674Z,9.88
2023-03-22T00:59:06.631Z,9.88
2023-03-22T01:00:06.726Z,9.94
2023-03-22T01:01:06.671Z,9.89
2023-03-22T01:02:06.822Z,9.96
2023-03-22T01:03:06.683Z,9.99
2023-03-22T01:04:06.622Z,9.97
2023-03-22T01:05:06.681Z,10.00
2023-03-22T01:06:06.613Z,10.01
2023-03-22T01:07:06.735Z,10.01
2023-03-22T01:08:06.620Z,10.03
2023-03-22T01:09:06.741Z,10.07
2023-03-22T01:10:06.579Z,10.04
2023-03-22T01:11:06.606Z,10.10
2023-03-22T01:12:06.606Z,10.07
2023-03-22T01:13:06.599Z,10.07
2023-03-22T01:14:06.677Z,10.09
2023-03-22T01:15:06.602Z,10.03
2023-03-22T01:16:06.671Z,10.06
2023-03-22T01:17:06.418Z,10.04
2023-03-22T01:18:06.570Z,10.04
2023-03-22T01:19:06.602Z,10.09
2023-03-22T01:20:06.508Z,10.07
2023-03-22T01:21:06.503Z,10.01
2023-03-22T01:22:06.502Z,10.06
2023-03-22T01:23:06.493Z,10.06
2023-03-22T01:24:06.578Z,10.06
2023-03-22T01:25:06.429Z,10.04
2023-03-22T01:26:06.437Z,10.06
2023-03-22T01:27:06.444Z,10.04
2023-03-22T01:28:06.450Z,10.06
2023-03-22T01:29:06.240Z,10.01
2023-03-22T01:30:06.385Z,10.06
2023-03-22T01:31:06.441Z,10.06
2023-03-22T01:32:06.418Z,9.99
2023-03-22T01:33:06.420Z,10.09
2023-03-22T01:34:06.362Z,10.06
2023-03-22T01:35:06.376Z,10.04
2023-03-22T01:36:06.471Z,10.07
2023-03-22T01:37:06.399Z,10.06
2023-03-22T01:38:06.262Z,10.09
2023-03-22T01:39:06.134Z,10.04
2023-03-22T01:40:06.278Z,10.07
2023-03-22T01:41:06.277Z,10.04
2023-03-22T01:42:06.406Z,10.07
2023-03-22T01:43:06.227Z,10.09
2023-03-22T01:44:06.233Z,10.10
2023-03-22T01:45:06.347Z,10.07
2023-03-22T01:46:06.358Z,10.10
2023-03-22T01:47:06.189Z,10.12
2023-03-22T01:48:06.349Z,10.06
2023-03-22T01:49:06.077Z,10.07
2023-03-22T01:50:06.273Z,10.06
2023-03-22T01:51:06.272Z,10.09
2023-03-22T01:52:06.099Z,10.06
2023-03-22T01:53:06.015Z,10.07
2023-03-22T01:54:05.998Z,10.12
2023-03-22T01:55:05.997Z,10.12
2023-03-22T01:56:06.219Z,10.04
2023-03-22T01:57:06.203Z,10.10
2023-03-22T01:58:06.044Z,10.07
2023-03-22T01:59:06.037Z,10.07
2023-03-22T02:00:06.024Z,10.04
2023-03-22T02:01:06.203Z,10.10
2023-03-22T02:02:06.119Z,10.10
2023-03-22T02:03:05.984Z,10.10
2023-03-22T02:04:06.070Z,10.06
2023-03-22T02:05:06.147Z,10.14
2023-03-22T02:06:05.985Z,10.14
2023-03-22T02:07:06.016Z,10.09
2023-03-22T02:08:06.063Z,10.09
2023-03-22T02:09:05.906Z,10.06
2023-03-22T02:10:05.984Z,10.09
2023-03-22T02:11:05.971Z,10.14
2023-03-22T02:12:05.957Z,10.09
2023-03-22T02:13:06.033Z,10.06
2023-03-22T02:14:05.928Z,10.12
2023-03-22T02:15:05.803Z,10.07
2023-03-22T02:16:05.915Z,10.09
2023-03-22T02:17:05.897Z,10.03
2023-03-22T02:18:05.892Z,10.04
2023-03-22T02:19:05.977Z,10.07
2023-03-22T02:20:05.735Z,10.12
2023-03-22T02:21:05.909Z,10.07
2023-03-22T02:22:05.914Z,10.00
2023-03-22T02:23:05.905Z,10.06
2023-03-22T02:24:05.820Z,10.09
2023-03-22T02:25:05.888Z,10.06
2023-03-22T02:26:05.885Z,10.00
2023-03-22T02:27:05.858Z,10.04
2023-03-22T02:28:05.848Z,10.04
2023-03-22T02:29:05.836Z,10.01
2023-03-22T02:30:05.910Z,10.03
2023-03-22T02:31:05.897Z,10.07
2023-03-22T02:32:05.776Z,10.10
2023-03-22T02:33:05.791Z,10.10
2023-03-22T02:34:05.804Z,10.07
2023-03-22T02:35:05.819Z,10.12
2023-03-22T02:36:05.827Z,10.15
2023-03-22T02:37:05.757Z,10.15
2023-03-22T02:38:05.773Z,10.18
2023-03-22T02:39:05.753Z,10.21
2023-03-22T02:40:05.831Z,10.22
2023-03-22T02:41:05.820Z,10.22
2023-03-22T02:42:05.727Z,10.26
2023-03-22T02:43:05.735Z,10.19
2023-03-22T02:44:05.487Z,10.17
2023-03-22T02:45:05.734Z,10.22
2023-03-22T02:46:05.742Z,10.22
2023-03-22T02:47:05.496Z,10.22
2023-03-22T02:48:05.746Z,10.25
2023-03-22T02:49:05.616Z,10.26
2023-03-22T02:50:05.493Z,10.22
2023-03-22T02:51:05.438Z,10.22
2023-03-22T02:52:05.416Z,10.24
2023-03-22T02:53:05.363Z,10.25
2023-03-22T02:54:05.590Z,10.28
2023-03-22T02:55:05.593Z,10.24
2023-03-22T02:56:05.665Z,10.21
2023-03-22T02:57:05.570Z,10.19
2023-03-22T02:58:05.654Z,10.21
2023-03-22T02:59:05.447Z,10.24
2023-03-22T03:00:05.300Z,10.24
2023-03-22T03:01:05.598Z,10.22
2023-03-22T03:02:05.494Z,10.24
2023-03-22T03:03:05.584Z,10.25
2023-03-22T03:04:05.399Z,10.25
2023-03-22T03:05:05.414Z,10.19
2023-03-22T03:06:05.446Z,10.21
2023-03-22T03:07:05.476Z,10.22
2023-03-22T03:08:05.387Z,10.24
2023-03-22T03:09:05.349Z,10.22
2023-03-22T03:10:05.415Z,10.24
2023-03-22T03:11:05.356Z,10.25
2023-03-22T03:12:05.175Z,10.28
2023-03-22T03:13:05.454Z,10.25
2023-03-22T03:14:05.329Z,10.28
2023-03-22T03:15:05.369Z,10.24
2023-03-22T03:16:05.348Z,10.24
2023-03-22T03:17:05.428Z,10.24
2023-03-22T03:18:05.305Z,10.26
2023-03-22T03:19:05.160Z,10.25
2023-03-22T03:20:05.312Z,10.26
2023-03-22T03:21:05.277Z,10.28
2023-03-22T03:22:05.389Z,10.28
2023-03-22T03:23:05.341Z,10.26
2023-03-22T03:24:05.282Z,10.24
2023-03-22T03:25:05.215Z,10.24
2023-03-22T03:26:05.235Z,10.28
2023-03-22T03:27:05.235Z,10.32
2023-03-22T03:28:05.315Z,10.26
2023-03-22T03:29:05.249Z,10.34
2023-03-22T03:30:05.280Z,10.33
2023-03-22T03:31:05.240Z,10.33
2023-03-22T03:32:05.164Z,10.34
2023-03-22T03:33:05.058Z,10.34
2023-03-22T03:34:05.010Z,10.33
2023-03-22T03:35:05.169Z,10.33
2023-03-22T03:36:05.184Z,10.33
2023-03-22T03:37:05.036Z,10.33
2023-03-22T03:38:04.963Z,10.37
2023-03-22T03:39:05.064Z,10.32
2023-03-22T03:40:05.078Z,10.30
2023-03-22T03:41:05.113Z,10.34
2023-03-22T03:42:05.118Z,10.28
2023-03-22T03:43:05.010Z,10.36
2023-03-22T03:44:05.134Z,10.30
2023-03-22T03:45:05.006Z,10.34
2023-03-22T03:46:05.049Z,10.34
2023-03-22T03:47:05.009Z,10.33
2023-03-22T03:48:05.092Z,10.34
2023-03-22T03:49:04.809Z,10.33
2023-03-22T03:50:05.097Z,10.36
2023-03-22T03:51:04.970Z,10.34
2023-03-22T03:52:04.960Z,10.32
2023-03-22T03:53:04.958Z,10.33
2023-03-22T03:54:04.792Z,10.28
2023-03-22T03:55:05.063Z,10.33
2023-03-22T03:56:04.924Z,10.30
2023-03-22T03:57:04.909Z,10.33
2023-03-22T03:58:04.730Z,10.25
2023-03-22T03:59:04.854Z,10.26
2023-03-22T04:00:04.931Z,10.25
2023-03-22T04:01:04.713Z,10.25
2023-03-22T04:02:04.732Z,10.24
2023-03-22T04:03:04.715Z,10.24
2023-03-22T04:04:04.713Z,10.32
2023-03-22T04:05:04.965Z,10.26
2023-03-22T04:06:04.633Z,10.26
2023-03-22T04:07:04.644Z,10.28
2023-03-22T04:08:04.791Z,10.26
2023-03-22T04:09:04.651Z,10.25
2023-03-22T04:10:04.682Z,10.32
2023-03-22T04:11:04.677Z,10.30
2023-03-22T04:12:04.764Z,10.32
2023-03-22T04:13:04.681Z,10.33
2023-03-22T04:14:04.553Z,10.28
2023-03-22T04:15:04.698Z,10.30
2023-03-22T04:16:04.617Z,10.34
2023-03-22T04:17:04.765Z,10.32
2023-03-22T04:18:04.520Z,10.32
2023-03-22T04:19:04.516Z,10.32
2023-03-22T04:20:05.923Z,10.30
2023-03-22T04:21:04.672Z,10.30
2023-03-22T04:22:04.751Z,10.32
2023-03-22T04:23:04.683Z,10.32
2023-03-22T04:24:04.704Z,10.34
2023-03-22T04:25:04.564Z,10.36
2023-03-22T04:26:04.749Z,10.32
2023-03-22T04:27:04.610Z,10.33
2023-03-22T04:28:04.456Z,10.26
2023-03-22T04:29:04.410Z,10.33
2023-03-22T04:30:04.624Z,10.28
2023-03-22T04:31:04.718Z,10.24
2023-03-22T04:32:04.603Z,10.26
2023-03-22T04:33:04.598Z,10.25
2023-03-22T04:34:04.600Z,10.28
2023-03-22T04:35:04.487Z,10.30
2023-03-22T04:36:04.695Z,10.21
2023-03-22T04:37:04.642Z,10.26
2023-03-22T04:38:04.563Z,10.21
2023-03-22T04:39:04.500Z,10.26
2023-03-22T04:40:04.439Z,10.22
2023-03-22T04:41:04.455Z,10.26
2023-03-22T04:42:04.473Z,10.28
2023-03-22T04:43:04.419Z,10.25
2023-03-22T04:44:04.331Z,10.26
2023-03-22T04:45:04.230Z,10.26
2023-03-22T04:46:04.269Z,10.28
2023-03-22T04:47:04.455Z,10.25
2023-03-22T04:48:04.503Z,10.24
2023-03-22T04:49:04.548Z,10.30
2023-03-22T04:50:04.427Z,10.25
2023-03-22T04:51:04.423Z,10.33
2023-03-22T04:52:04.365Z,10.34
2023-03-22T04:53:04.375Z,10.30
2023-03-22T04:54:04.455Z,10.32
2023-03-22T04:55:04.357Z,10.39
2023-03-22T04:56:04.350Z,10.37
2023-03-22T04:57:04.120Z,10.33
2023-03-22T04:58:04.153Z,10.37
2023-03-22T04:59:04.385Z,10.34
2023-03-22T05:00:04.163Z,10.30
2023-03-22T05:01:04.074Z,10.34
2023-03-22T05:02:04.189Z,10.34
2023-03-22T05:03:04.235Z,10.37
2023-03-22T05:04:04.103Z,10.36
2023-03-22T05:05:04.318Z,10.34
2023-03-22T05:06:04.159Z,10.36
2023-03-22T05:07:04.138Z,10.40
2023-03-22T05:08:04.129Z,10.37
2023-03-22T05:09:04.128Z,10.36
2023-03-22T05:10:04.160Z,10.36
2023-03-22T05:11:03.986Z,10.39
2023-03-22T05:12:04.109Z,10.39
2023-03-22T05:13:04.070Z,10.34
2023-03-22T05:14:04.188Z,10.33
2023-03-22T05:15:04.040Z,10.36
2023-03-22T05:16:04.253Z,10.28
2023-03-22T05:17:04.138Z,10.37
2023-03-22T05:18:04.022Z,10.32
2023-03-22T05:19:04.018Z,10.37
2023-03-22T05:20:03.994Z,10.37
2023-03-22T05:21:03.988Z,10.34
2023-03-22T05:22:03.981Z,10.37
2023-03-22T05:23:04.060Z,10.40
2023-03-22T05:24:03.997Z,10.33
2023-03-22T05:25:03.986Z,10.39
2023-03-22T05:26:04.307Z,10.36
2023-03-22T05:27:03.973Z,10.36
2023-03-22T05:28:03.937Z,10.36
2023-03-22T05:29:03.945Z,10.32
2023-03-22T05:30:03.969Z,10.39
2023-03-22T05:31:04.086Z,10.40
2023-03-22T05:32:03.730Z,10.37
2023-03-22T05:33:03.996Z,10.37
2023-03-22T05:34:03.945Z,10.39
2023-03-22T05:35:03.886Z,10.36
2023-03-22T05:36:03.829Z,10.36
2023-03-22T05:37:03.931Z,10.39
2023-03-22T05:38:03.701Z,10.40
2023-03-22T05:39:03.770Z,10.43
2023-03-22T05:40:03.857Z,10.40
2023-03-22T05:41:03.891Z,10.40
2023-03-22T05:42:03.832Z,10.39
2023-03-22T05:43:03.859Z,10.43
2023-03-22T05:44:03.877Z,10.42
2023-03-22T05:45:03.813Z,10.44
2023-03-22T05:46:03.630Z,10.40
2023-03-22T05:47:03.713Z,10.42
2023-03-22T05:48:03.709Z,10.40
2023-03-22T05:49:03.631Z,10.37
2023-03-22T05:50:03.732Z,10.42
2023-03-22T05:51:03.773Z,10.42
2023-03-22T05:52:03.765Z,10.51
2023-03-22T05:53:03.768Z,10.42
2023-03-22T05:54:03.836Z,10.58
2023-03-22T05:55:03.562Z,10.60
2023-03-22T05:56:03.818Z,10.65
2023-03-22T05:57:03.523Z,10.59
2023-03-22T05:58:03.704Z,10.62
2023-03-22T05:59:03.508Z,10.62
2023-03-22T06:00:03.736Z,10.55
2023-03-22T06:01:03.698Z,10.56
2023-03-22T06:02:03.681Z,10.55
2023-03-22T06:03:03.754Z,10.51
2023-03-22T06:04:03.662Z,10.56
2023-03-22T06:05:03.639Z,10.51
2023-03-22T06:06:03.726Z,10.44
2023-03-22T06:07:03.415Z,10.47
2023-03-22T06:08:03.610Z,10.47
2023-03-22T06:09:15.916Z,10.42
2023-03-22T06:10:03.425Z,10.39
2023-03-22T06:11:03.641Z,10.46
2023-03-22T06:12:03.349Z,10.53
2023-03-22T06:13:03.408Z,10.58
2023-03-22T06:14:03.344Z,10.83
2023-03-22T06:15:03.570Z,11.24
2023-03-22T06:16:03.534Z,11.71
2023-03-22T06:17:03.509Z,12.11
2023-03-22T06:18:03.509Z,12.49
2023-03-22T06:19:03.522Z,12.81
2023-03-22T06:20:03.461Z,13.17
2023-03-22T06:21:03.542Z,13.22
2023-03-22T06:22:03.466Z,13.41
2023-03-22T06:23:03.466Z,13.74
2023-03-22T06:24:03.455Z,13.94
2023-03-22T06:25:03.456Z,14.19
2023-03-22T06:26:03.366Z,14.29
2023-03-22T06:27:03.443Z,14.39
2023-03-22T06:28:03.437Z,14.50
2023-03-22T06:29:03.346Z,14.39
2023-03-22T06:30:03.350Z,14.43
2023-03-22T06:31:03.371Z,14.64
2023-03-22T06:32:03.353Z,14.74
2023-03-22T06:33:03.450Z,14.98
2023-03-22T06:34:03.385Z,15.33
2023-03-22T06:35:03.230Z,15.39
2023-03-22T06:36:03.227Z,15.75
2023-03-22T06:37:03.297Z,15.82
2023-03-22T06:38:03.364Z,15.88
2023-03-22T06:39:03.208Z,15.96
2023-03-22T06:40:03.093Z,15.92
2023-03-22T06:41:03.194Z,16.07
2023-03-22T06:42:03.206Z,16.20
2023-03-22T06:43:06.383Z,16.07
2023-03-22T06:44:03.208Z,15.72
2023-03-22T06:45:03.204Z,15.39
2023-03-22T06:46:03.232Z,15.48
2023-03-22T06:47:03.217Z,15.63
2023-03-22T06:48:03.175Z,15.41
2023-03-22T06:49:03.254Z,15.52
2023-03-22T06:50:03.068Z,15.82
2023-03-22T06:51:03.147Z,16.23
2023-03-22T06:52:03.066Z,16.56
2023-03-22T06:53:03.071Z,16.50
2023-03-22T06:54:03.135Z,16.60
2023-03-22T06:55:03.125Z,16.50
2023-03-22T06:56:03.048Z,16.45
2023-03-22T06:57:03.053Z,16.11
2023-03-22T06:58:02.999Z,15.96
2023-03-22T06:59:03.010Z,16.09
2023-03-22T07:00:03.103Z,16.03
2023-03-22T07:01:03.051Z,16.22
2023-03-22T07:02:02.958Z,16.33
2023-03-22T07:03:02.937Z,16.52
2023-03-22T07:04:03.008Z,16.41
2023-03-22T07:05:02.964Z,16.63
2023-03-22T07:06:03.058Z,16.75
2023-03-22T07:07:02.968Z,16.62
2023-03-22T07:08:02.955Z,16.34
2023-03-22T07:09:02.925Z,16.23
2023-03-22T07:10:02.908Z,16.23
2023-03-22T07:11:02.855Z,16.49
2023-03-22T07:12:02.912Z,16.56
2023-03-22T07:13:02.889Z,16.30
2023-03-22T07:14:02.858Z,15.94
2023-03-22T07:15:02.842Z,15.41
2023-03-22T07:16:02.889Z,14.99
2023-03-22T07:17:02.860Z,14.62
2023-03-22T07:18:02.877Z,14.35
2023-03-22T07:19:02.809Z,14.19
2023-03-22T07:20:02.828Z,13.98
2023-03-22T07:21:02.857Z,13.77
2023-03-22T07:22:02.861Z,13.61
2023-03-22T07:23:02.855Z,13.44
2023-03-22T07:24:02.760Z,13.32
2023-03-22T07:25:02.732Z,13.20
2023-03-22T07:26:02.775Z,13.09
2023-03-22T07:27:02.733Z,13.03
2023-03-22T07:28:02.786Z,13.02
2023-03-22T07:29:02.675Z,13.02
2023-03-22T07:30:02.652Z,12.97
2023-03-22T07:31:02.649Z,12.95
2023-03-22T07:32:02.707Z,12.95
2023-03-22T07:33:02.761Z,12.87
2023-03-22T07:34:02.684Z,12.89
2023-03-22T07:35:02.689Z,12.84
2023-03-22T07:36:02.810Z,12.71
2023-03-22T07:37:02.668Z,12.71
2023-03-22T07:38:02.736Z,12.71
2023-03-22T07:39:02.725Z,12.74
2023-03-22T07:40:02.630Z,12.82
2023-03-22T07:41:02.588Z,12.87
2023-03-22T07:42:02.528Z,12.81
2023-03-22T07:43:02.632Z,12.88
2023-03-22T07:44:17.036Z,12.89
2023-03-22T07:45:02.595Z,12.81
2023-03-22T07:46:02.476Z,12.77
2023-03-22T07:47:02.519Z,12.84
2023-03-22T07:48:02.626Z,12.79
2023-03-22T07:49:02.581Z,12.96
2023-03-22T07:50:02.495Z,12.99
2023-03-22T07:51:02.480Z,13.17
2023-03-22T07:52:02.528Z,13.32
2023-03-22T07:53:02.504Z,13.47
2023-03-22T07:54:02.559Z,13.56
2023-03-22T07:55:02.449Z,13.79
2023-03-22T07:56:02.453Z,13.96
2023-03-22T07:57:02.379Z,13.88
2023-03-22T07:58:02.382Z,13.74
2023-03-22T07:59:02.522Z,13.52
2023-03-22T08:00:02.405Z,13.41
2023-03-22T08:01:02.397Z,13.36
2023-03-22T08:02:02.447Z,13.30
2023-03-22T08:03:02.586Z,13.32
2023-03-22T08:04:02.391Z,13.30
2023-03-22T08:05:02.434Z,13.37
2023-03-22T08:06:02.405Z,13.36
2023-03-22T08:07:02.274Z,13.33
2023-03-22T08:08:02.281Z,13.33
2023-03-22T08:09:02.289Z,13.30
2023-03-22T08:10:02.293Z,13.18
2023-03-22T08:11:02.370Z,13.12
2023-03-22T08:12:02.275Z,13.20
2023-03-22T08:13:02.342Z,13.04
2023-03-22T08:14:02.246Z,12.93
2023-03-22T08:15:02.315Z,12.93
2023-03-22T08:16:02.385Z,12.97
2023-03-22T08:17:02.227Z,12.88
2023-03-22T08:18:02.217Z,12.82
2023-03-22T08:19:02.206Z,12.77
2023-03-22T08:20:02.211Z,12.75
2023-03-22T08:21:02.179Z,12.74
2023-03-22T08:22:02.242Z,12.77
2023-03-22T08:23:02.146Z,12.82
2023-03-22T08:24:02.127Z,12.74
2023-03-22T08:25:02.210Z,12.81
2023-03-22T08:26:02.212Z,12.78
2023-03-22T08:27:02.110Z,12.71
2023-03-22T08:28:02.094Z,12.75
2023-03-22T08:29:02.142Z,12.82
2023-03-22T08:30:02.126Z,12.92
2023-03-22T08:31:02.115Z,12.96
2023-03-22T08:32:02.244Z,12.95
2023-03-22T08:33:02.109Z,12.97
2023-03-22T08:34:02.129Z,13.18
2023-03-22T08:35:02.064Z,13.36
2023-03-22T08:36:02.101Z,13.52
2023-03-22T08:37:02.027Z,13.61
2023-03-22T08:38:01.995Z,13.61
2023-03-22T08:39:02.036Z,13.65
2023-03-22T08:40:01.991Z,13.63
2023-03-22T08:41:01.960Z,13.62
2023-03-22T08:42:01.898Z,13.63
2023-03-22T08:43:01.928Z,13.61
2023-03-22T08:44:01.941Z,13.63
2023-03-22T08:45:02.000Z,13.67
2023-03-22T08:46:01.990Z,13.76
2023-03-22T08:47:03.125Z,13.79
2023-03-22T08:48:01.885Z,13.88
2023-03-22T08:49:01.934Z,13.92
2023-03-22T08:50:01.969Z,13.98
2023-03-22T08:51:01.895Z,13.88
2023-03-22T08:52:01.836Z,13.80
2023-03-22T08:53:01.853Z,13.76
2023-03-22T08:54:01.868Z,13.73
2023-03-22T08:55:01.943Z,13.80
2023-03-22T08:56:01.863Z,13.88
2023-03-22T08:57:01.861Z,13.81
2023-03-22T08:58:01.787Z,13.92
2023-03-22T08:59:01.791Z,13.99
2023-03-22T09:00:01.804Z,14.21
2023-03-22T09:01:01.851Z,14.38
2023-03-22T09:02:01.850Z,14.31
2023-03-22T09:03:01.720Z,14.21
2023-03-22T09:04:01.755Z,14.16
2023-03-22T09:05:01.754Z,14.32
2023-03-22T09:06:01.705Z,14.34
2023-03-22T09:07:01.642Z,14.46
2023-03-22T09:08:06.240Z,14.39
2023-03-22T09:09:01.641Z,14.42
2023-03-22T09:10:01.622Z,14.52
2023-03-22T09:11:01.703Z,14.39
2023-03-22T09:12:01.611Z,14.39
2023-03-22T09:13:01.582Z,14.31
2023-03-22T09:14:01.623Z,14.28
2023-03-22T09:15:01.578Z,14.20
2023-03-22T09:16:01.680Z,14.16
2023-03-22T09:17:01.544Z,14.20
2023-03-22T09:18:01.599Z,14.10
2023-03-22T09:19:01.572Z,14.06
2023-03-22T09:20:11.934Z,13.99
2023-03-22T09:21:01.514Z,13.87
2023-03-22T09:22:01.532Z,13.96
2023-03-22T09:23:01.498Z,13.99
2023-03-22T09:24:01.567Z,14.28
2023-03-22T09:25:01.514Z,14.65
2023-03-22T09:26:01.496Z,14.62
2023-03-22T09:27:01.429Z,14.69
2023-03-22T09:28:01.511Z,14.69
2023-03-22T09:29:01.527Z,14.68
2023-03-22T09:30:01.470Z,15.15
2023-03-22T09:31:01.467Z,15.68
2023-03-22T09:32:01.493Z,16.01
2023-03-22T09:33:01.411Z,16.45
2023-03-22T09:34:01.473Z,16.75
2023-03-22T09:35:01.399Z,16.77
2023-03-22T09:36:01.428Z,16.49
2023-03-22T09:37:01.427Z,16.35
2023-03-22T09:38:01.412Z,16.33
2023-03-22T09:39:01.486Z,16.12
2023-03-22T09:40:01.384Z,16.03
2023-03-22T09:41:01.358Z,15.97
2023-03-22T09:42:01.420Z,16.12
2023-03-22T09:43:01.323Z,16.45
2023-03-22T09:44:01.378Z,16.68
2023-03-22T09:45:01.288Z,16.68
2023-03-22T09:46:01.360Z,16.45
2023-03-22T09:47:01.288Z,16.30
2023-03-22T09:48:01.315Z,16.23
2023-03-22T09:49:01.392Z,16.11
2023-03-22T09:50:01.302Z,16.04
2023-03-22T09:51:01.294Z,16.38
2023-03-22T09:52:01.249Z,16.31
2023-03-22T09:53:01.269Z,16.56
2023-03-22T09:54:01.319Z,16.41
2023-03-22T09:55:01.202Z,16.73
2023-03-22T09:56:01.231Z,16.55
2023-03-22T09:57:01.181Z,17.08
2023-03-22T09:58:01.293Z,17.06
2023-03-22T09:59:01.345Z,17.25
2023-03-22T10:00:01.135Z,17.20
2023-03-22T10:01:01.324Z,17.07
2023-03-22T10:02:01.373Z,16.81
2023-03-22T10:03:01.119Z,16.37
2023-03-22T10:04:01.179Z,16.23
2023-03-22T10:05:01.120Z,16.23
2023-03-22T10:06:01.120Z,16.42
2023-03-22T10:07:01.113Z,16.30
2023-03-22T10:08:01.174Z,16.53
2023-03-22T10:09:01.247Z,16.73
2023-03-22T10:10:01.152Z,16.88
2023-03-22T10:11:01.023Z,16.96
2023-03-22T10:12:01.012Z,17.07
2023-03-22T10:13:00.990Z,16.89
2023-03-22T10:14:01.044Z,16.92
2023-03-22T10:15:01.039Z,16.65
2023-03-22T10:16:01.131Z,16.67
2023-03-22T10:17:00.981Z,16.73
2023-03-22T10:18:00.962Z,16.68
2023-03-22T10:19:00.945Z,16.68
2023-03-22T10:20:00.921Z,16.70
2023-03-22T10:21:01.017Z,16.68
2023-03-22T10:22:00.932Z,16.62
2023-03-22T10:23:00.926Z,17.47
2023-03-22T10:24:00.901Z,17.44
2023-03-22T10:25:00.884Z,17.69
2023-03-22T10:26:00.861Z,17.53
2023-03-22T10:27:00.933Z,17.29
2023-03-22T10:28:00.909Z,17.17
2023-03-22T10:29:02.762Z,17.17
2023-03-22T10:30:00.860Z,16.98
2023-03-22T10:31:00.903Z,16.85
2023-03-22T10:32:00.825Z,16.77
2023-03-22T10:33:00.890Z,16.86
2023-03-22T10:34:00.803Z,17.10
2023-03-22T10:35:00.799Z,17.25
2023-03-22T10:36:00.798Z,17.44
2023-03-22T10:37:00.740Z,17.97
2023-03-22T10:38:00.808Z,18.44
2023-03-22T10:39:00.717Z,18.64
2023-03-22T10:40:00.698Z,18.31
2023-03-22T10:41:00.675Z,18.44
2023-03-22T10:42:00.685Z,18.64
2023-03-22T10:43:00.637Z,19.20
2023-03-22T10:44:00.715Z,18.95
2023-03-22T10:45:00.708Z,18.50
2023-03-22T10:46:00.622Z,18.43
2023-03-22T10:47:00.674Z,18.52
2023-03-22T10:48:00.712Z,18.22
2023-03-22T10:49:00.597Z,18.58
2023-03-22T10:50:00.595Z,19.11
2023-03-22T10:51:00.577Z,19.51
2023-03-22T10:52:00.626Z,19.84
2023-03-22T10:53:00.594Z,20.08
2023-03-22T10:54:00.657Z,20.06
2023-03-22T10:55:04.185Z,20.30
2023-03-22T10:56:00.520Z,20.13
2023-03-22T10:57:00.574Z,20.24
2023-03-22T10:58:00.556Z,20.16
2023-03-22T10:59:00.600Z,20.25
2023-03-22T11:00:00.496Z,20.66
2023-03-22T11:01:00.581Z,20.34
2023-03-22T11:02:00.664Z,19.86
2023-03-22T11:03:00.548Z,19.55
2023-03-22T11:04:00.427Z,19.46
2023-03-22T11:05:00.540Z,19.84
2023-03-22T11:06:00.494Z,19.95
2023-03-22T11:07:00.524Z,19.95
2023-03-22T11:08:00.453Z,19.76
2023-03-22T11:09:00.462Z,19.31
2023-03-22T11:10:00.457Z,19.05
2023-03-22T11:11:00.579Z,18.59
2023-03-22T11:12:00.430Z,18.39
2023-03-22T11:13:00.407Z,18.06
2023-03-22T11:14:00.401Z,17.94
2023-03-22T11:15:00.364Z,18.03
2023-03-22T11:16:00.539Z,18.19
2023-03-22T11:17:00.409Z,18.36
2023-03-22T11:18:00.356Z,18.49
2023-03-22T11:19:00.126Z,18.39
2023-03-22T11:20:00.366Z,18.18
2023-03-22T11:21:00.444Z,18.36
2023-03-22T11:22:00.282Z,18.46
2023-03-22T11:23:00.341Z,18.47
2023-03-22T11:24:00.256Z,18.67
2023-03-22T11:25:00.244Z,18.82
2023-03-22T11:26:00.311Z,18.99
2023-03-22T11:27:00.298Z,19.21
2023-03-22T11:28:00.282Z,18.86
2023-03-22T11:29:00.258Z,18.77
2023-03-22T11:30:00.172Z,18.92
2023-03-22T11:31:00.278Z,18.84
2023-03-22T11:32:00.269Z,18.64
2023-03-22T11:33:00.328Z,18.52
2023-03-22T11:34:00.222Z,18.59
2023-03-22T11:35:00.143Z,18.64
2023-03-22T11:36:00.175Z,18.79
2023-03-22T11:36:59.980Z,19.01
2023-03-22T11:38:00.133Z,19.11
2023-03-22T11:39:00.248Z,19.32
2023-03-22T11:40:00.191Z,19.35
2023-03-22T11:41:00.131Z,19.48
2023-03-22T11:42:00.235Z,19.42
2023-03-22T11:43:00.130Z,19.25
2023-03-22T11:44:00.170Z,18.98
2023-03-22T11:45:00.111Z,18.82
2023-03-22T11:46:00.163Z,18.59
2023-03-22T11:46:59.842Z,18.50
2023-03-22T11:48:00.219Z,18.25
2023-03-22T11:49:01.346Z,18.17
2023-03-22T11:50:00.028Z,18.12
2023-03-22T11:51:00.000Z,18.06
2023-03-22T11:52:00.062Z,18.13
2023-03-22T11:53:00.036Z,18.15
2023-03-22T11:54:00.133Z,18.06
2023-03-22T11:54:59.965Z,18.07
2023-03-22T11:55:59.928Z,18.12
2023-03-22T11:57:00.060Z,18.12
2023-03-22T11:57:59.896Z,17.92
2023-03-22T11:59:00.011Z,17.59
2023-03-22T11:59:59.909Z,17.20
2023-03-22T12:00:59.889Z,17.15
2023-03-22T12:01:59.902Z,17.18
2023-03-22T12:02:59.942Z,17.23
2023-03-22T12:04:00.133Z,17.20
2023-03-22T12:04:59.802Z,17.22
2023-03-22T12:05:59.977Z,17.25
2023-03-22T12:06:59.875Z,17.18
2023-03-22T12:07:59.907Z,17.13
2023-03-22T12:08:59.863Z,17.07
2023-03-22T12:10:00.330Z,17.00
2023-03-22T12:10:59.698Z,16.95
2023-03-22T12:11:59.722Z,16.88
2023-03-22T12:12:59.720Z,16.74
2023-03-22T12:13:59.878Z,16.68
2023-03-22T12:14:59.734Z,16.58
2023-03-22T12:15:59.773Z,16.67
2023-03-22T12:16:59.754Z,16.73
2023-03-22T12:17:59.612Z,16.68
2023-03-22T12:18:59.529Z,16.63
2023-03-22T12:19:59.662Z,16.75
2023-03-22T12:20:59.513Z,16.78
2023-03-22T12:21:59.532Z,16.63
2023-03-22T12:22:59.706Z,16.62
2023-03-22T12:23:59.689Z,16.74
2023-03-22T12:24:59.690Z,16.90
2023-03-22T12:25:59.682Z,16.95
2023-03-22T12:26:59.559Z,16.95
2023-03-22T12:27:59.563Z,16.90
2023-03-22T12:28:59.575Z,16.99
2023-03-22T12:29:59.706Z,16.99
2023-03-22T12:30:59.534Z,17.03
2023-03-22T12:31:59.512Z,16.81
2023-03-22T12:32:59.516Z,16.80
2023-03-22T12:33:59.555Z,16.89
2023-03-22T12:35:16.028Z,16.75
2023-03-22T12:35:59.415Z,16.70
2023-03-22T12:36:59.472Z,16.52
2023-03-22T12:37:59.543Z,16.56
2023-03-22T12:38:59.524Z,16.53
2023-03-22T12:39:59.451Z,16.50
2023-03-22T12:40:59.534Z,16.49
2023-03-22T12:41:59.479Z,16.55
2023-03-22T12:43:00.344Z,16.70
2023-03-22T12:43:59.464Z,16.55
2023-03-22T12:45:05.188Z,16.53
2023-03-22T12:45:59.302Z,16.55
2023-03-22T12:46:59.580Z,16.68
2023-03-22T12:47:59.585Z,16.78
2023-03-22T12:48:59.429Z,16.83
2023-03-22T12:49:59.360Z,16.95
2023-03-22T12:50:59.172Z,16.86
2023-03-22T12:51:59.180Z,16.92
2023-03-22T12:52:59.464Z,16.95
2023-03-22T12:53:59.372Z,16.93